createdAt,value
2023-01-28T00:00:16.920Z,1.28
2023-01-28T00:01:16.402Z,1.28
2023-01-28T00:02:16.444Z,1.29
2023-01-28T00:03:16.984Z,1.31
2023-01-28T00:04:16.486Z,1.32
2023-01-28T00:05:17.175Z,1.32
2023-01-28T00:06:16.699Z,1.33
2023-01-28T00:07:17.221Z,1.32
2023-01-28T00:08:16.776Z,1.29
2023-01-28T00:09:17.314Z,1.31
2023-01-28T00:10:16.814Z,1.29
2023-01-28T00:11:16.319Z,1.28
2023-01-28T00:12:17.018Z,1.25
2023-01-28T00:13:16.510Z,1.25
2023-01-28T00:14:17.010Z,1.26
2023-01-28T00:15:16.635Z,1.26
2023-01-28T00:16:17.159Z,1.28
2023-01-28T00:17:16.747Z,1.28
2023-01-28T00:18:17.261Z,1.28
2023-01-28T00:19:16.775Z,1.28
2023-01-28T00:20:17.282Z,1.28
2023-01-28T00:21:16.818Z,1.28
2023-01-28T00:22:17.005Z,1.26
2023-01-28T00:23:16.500Z,1.26
2023-01-28T00:24:17.028Z,1.25
2023-01-28T00:25:16.966Z,1.25
2023-01-28T00:26:16.886Z,1.26
2023-01-28T00:27:16.396Z,1.28
2023-01-28T00:28:16.924Z,1.28
2023-01-28T00:29:16.405Z,1.28
2023-01-28T00:30:16.904Z,1.28
2023-01-28T00:31:16.372Z,1.29
2023-01-28T00:32:16.331Z,1.32
2023-01-28T00:33:16.823Z,1.31
2023-01-28T00:34:16.316Z,1.31
2023-01-28T00:35:17.168Z,1.29
2023-01-28T00:36:16.376Z,1.28
2023-01-28T00:37:16.897Z,1.32
2023-01-28T00:38:16.531Z,1.29
2023-01-28T00:39:17.069Z,1.31
2023-01-28T00:40:16.566Z,1.32
2023-01-28T00:41:17.091Z,1.33
2023-01-28T00:42:16.777Z,1.31
2023-01-28T00:43:17.287Z,1.29
2023-01-28T00:44:16.771Z,1.29
2023-01-28T00:45:17.446Z,1.31
2023-01-28T00:46:17.120Z,1.29
2023-01-28T00:47:16.783Z,1.31
2023-01-28T00:48:17.290Z,1.31
2023-01-28T00:49:16.778Z,1.29
2023-01-28T00:50:17.289Z,1.32
2023-01-28T00:51:16.803Z,1.31
2023-01-28T00:52:16.859Z,1.31
2023-01-28T00:53:16.368Z,1.29
2023-01-28T00:54:16.855Z,1.32
2023-01-28T00:55:16.764Z,1.33
2023-01-28T00:56:16.729Z,1.32
2023-01-28T00:57:17.209Z,1.33
2023-01-28T00:58:16.697Z,1.32
2023-01-28T00:59:17.200Z,1.33
2023-01-28T01:00:16.684Z,1.33
2023-01-28T01:01:17.219Z,1.32
2023-01-28T01:02:16.911Z,1.31
2023-01-28T01:03:16.463Z,1.33
2023-01-28T01:04:16.973Z,1.33
2023-01-28T01:05:16.908Z,1.35
2023-01-28T01:06:16.815Z,1.39
2023-01-28T01:07:16.297Z,1.33
2023-01-28T01:08:16.841Z,1.32
2023-01-28T01:09:16.339Z,1.35
2023-01-28T01:10:16.876Z,1.32
2023-01-28T01:11:16.398Z,1.32
2023-01-28T01:12:16.940Z,1.35
2023-01-28T01:13:16.438Z,1.36
2023-01-28T01:14:16.934Z,1.36
2023-01-28T01:15:16.759Z,1.33
2023-01-28T01:16:16.663Z,1.36
2023-01-28T01:17:17.220Z,1.38
2023-01-28T01:18:16.700Z,1.33
2023-01-28T01:19:17.180Z,1.36
2023-01-28T01:20:16.690Z,1.35
2023-01-28T01:21:17.192Z,1.33
2023-01-28T01:22:16.681Z,1.36
2023-01-28T01:23:17.211Z,1.39
2023-01-28T01:24:16.844Z,1.39
2023-01-28T01:25:17.077Z,1.39
2023-01-28T01:26:17.129Z,1.38
2023-01-28T01:27:16.623Z,1.39
2023-01-28T01:28:17.160Z,1.38
2023-01-28T01:29:16.669Z,1.36
2023-01-28T01:30:17.178Z,1.35
2023-01-28T01:31:16.733Z,1.39
2023-01-28T01:32:16.529Z,1.38
2023-01-28T01:33:17.040Z,1.42
2023-01-28T01:34:16.559Z,1.42
2023-01-28T01:35:17.500Z,1.43
2023-01-28T01:36:16.722Z,1.40
2023-01-28T01:37:17.238Z,1.42
2023-01-28T01:38:16.711Z,1.39
2023-01-28T01:39:17.198Z,1.43
2023-01-28T01:40:16.685Z,1.40
2023-01-28T01:41:17.153Z,1.39
2023-01-28T01:42:16.726Z,1.39
2023-01-28T01:43:17.250Z,1.40
2023-01-28T01:44:16.779Z,1.42
2023-01-28T01:45:17.549Z,1.42
2023-01-28T01:46:16.620Z,1.38
2023-01-28T01:47:17.193Z,1.39
2023-01-28T01:48:16.724Z,1.39
2023-01-28T01:49:17.213Z,1.39
2023-01-28T01:50:16.748Z,1.40
2023-01-28T01:51:17.211Z,1.42
2023-01-28T01:52:16.977Z,1.40
2023-01-28T01:53:16.499Z,1.38
2023-01-28T01:54:17.005Z,1.38
2023-01-28T01:55:16.917Z,1.40
2023-01-28T01:56:16.811Z,1.42
2023-01-28T01:57:17.302Z,1.42
2023-01-28T01:58:16.849Z,1.42
2023-01-28T01:59:16.368Z,1.43
2023-01-28T02:00:16.866Z,1.43
2023-01-28T02:01:16.384Z,1.40
2023-01-28T02:02:16.986Z,1.40
2023-01-28T02:03:16.915Z,1.39
2023-01-28T02:04:16.533Z,1.40
2023-01-28T02:05:17.441Z,1.42
2023-01-28T02:06:16.613Z,1.39
2023-01-28T02:07:17.192Z,1.42
2023-01-28T02:08:16.757Z,1.42
2023-01-28T02:09:17.249Z,1.45
2023-01-28T02:10:16.782Z,1.45
2023-01-28T02:11:17.301Z,1.40
2023-01-28T02:12:16.958Z,1.43
2023-01-28T02:13:16.508Z,1.38
2023-01-28T02:14:30.463Z,1.35
2023-01-28T02:15:17.139Z,1.36
2023-01-28T02:16:17.185Z,1.33
2023-01-28T02:17:16.738Z,1.36
2023-01-28T02:18:17.335Z,1.36
2023-01-28T02:19:16.835Z,1.36
2023-01-28T02:20:16.329Z,1.39
2023-01-28T02:21:16.815Z,1.38
2023-01-28T02:22:17.244Z,1.38
2023-01-28T02:23:16.757Z,1.40
2023-01-28T02:24:17.273Z,1.42
2023-01-28T02:25:17.194Z,1.42
2023-01-28T02:26:17.119Z,1.40
2023-01-28T02:27:16.632Z,1.40
2023-01-28T02:28:17.163Z,1.38
2023-01-28T02:29:16.673Z,1.39
2023-01-28T02:30:17.162Z,1.40
2023-01-28T02:31:16.839Z,1.43
2023-01-28T02:32:16.551Z,1.38
2023-01-28T02:33:17.045Z,1.33
2023-01-28T02:34:16.594Z,1.32
2023-01-28T02:35:17.302Z,1.31
2023-01-28T02:36:17.070Z,1.33
2023-01-28T02:37:16.564Z,1.33
2023-01-28T02:38:17.104Z,1.32
2023-01-28T02:39:16.602Z,1.31
2023-01-28T02:40:17.096Z,1.32
2023-01-28T02:41:16.592Z,1.38
2023-01-28T02:42:17.055Z,1.35
2023-01-28T02:43:16.545Z,1.36
2023-01-28T02:44:17.018Z,1.35
2023-01-28T02:45:16.735Z,1.35
2023-01-28T02:46:16.592Z,1.32
2023-01-28T02:47:17.255Z,1.32
2023-01-28T02:48:16.751Z,1.32
2023-01-28T02:49:17.251Z,1.33
2023-01-28T02:50:16.805Z,1.38
2023-01-28T02:51:17.291Z,1.38
2023-01-28T02:52:17.062Z,1.35
2023-01-28T02:53:16.555Z,1.35
2023-01-28T02:54:17.061Z,1.39
2023-01-28T02:55:16.849Z,1.38
2023-01-28T02:56:16.673Z,1.39
2023-01-28T02:57:17.193Z,1.40
2023-01-28T02:58:16.675Z,1.39
2023-01-28T02:59:17.173Z,1.40
2023-01-28T03:00:16.673Z,1.40
2023-01-28T03:01:17.214Z,1.40
2023-01-28T03:02:16.752Z,1.40
2023-01-28T03:03:16.320Z,1.40
2023-01-28T03:04:16.825Z,1.39
2023-01-28T03:05:16.668Z,1.40
2023-01-28T03:06:16.475Z,1.40
2023-01-28T03:07:16.967Z,1.39
2023-01-28T03:08:16.503Z,1.38
2023-01-28T03:09:16.975Z,1.38
2023-01-28T03:10:16.511Z,1.42
2023-01-28T03:11:17.011Z,1.43
2023-01-28T03:12:16.363Z,1.43
2023-01-28T03:13:16.858Z,1.40
2023-01-28T03:14:16.329Z,1.39
2023-01-28T03:15:17.207Z,1.39
2023-01-28T03:16:17.259Z,1.39
2023-01-28T03:17:16.973Z,1.39
2023-01-28T03:18:16.451Z,1.39
2023-01-28T03:19:16.951Z,1.39
2023-01-28T03:20:16.447Z,1.38
2023-01-28T03:21:16.990Z,1.36
2023-01-28T03:22:16.443Z,1.35
2023-01-28T03:23:16.983Z,1.35
2023-01-28T03:24:16.474Z,1.36
2023-01-28T03:25:17.279Z,1.36
2023-01-28T03:26:16.840Z,1.36
2023-01-28T03:27:16.333Z,1.38
2023-01-28T03:28:16.904Z,1.38
2023-01-28T03:29:16.420Z,1.39
2023-01-28T03:30:16.966Z,1.38
2023-01-28T03:31:16.475Z,1.35
2023-01-28T03:32:16.687Z,1.36
2023-01-28T03:33:17.247Z,1.39
2023-01-28T03:34:16.755Z,1.39
2023-01-28T03:35:17.509Z,1.39
2023-01-28T03:36:17.281Z,1.39
2023-01-28T03:37:16.837Z,1.39
2023-01-28T03:38:16.342Z,1.39
2023-01-28T03:39:16.863Z,1.39
2023-01-28T03:40:16.433Z,1.38
2023-01-28T03:41:16.906Z,1.39
2023-01-28T03:42:17.268Z,1.36
2023-01-28T03:43:16.782Z,1.36
2023-01-28T03:44:17.300Z,1.39
2023-01-28T03:45:17.252Z,1.39
2023-01-28T03:46:17.167Z,1.42
2023-01-28T03:47:16.745Z,1.40
2023-01-28T03:48:17.245Z,1.39
2023-01-28T03:49:16.754Z,1.40
2023-01-28T03:50:17.244Z,1.39
2023-01-28T03:51:16.753Z,1.39
2023-01-28T03:52:17.076Z,1.40
2023-01-28T03:53:17.108Z,1.39
2023-01-28T03:54:16.616Z,1.43
2023-01-28T03:55:17.336Z,1.39
2023-01-28T03:56:17.198Z,1.40
2023-01-28T03:57:16.664Z,1.39
2023-01-28T03:58:17.175Z,1.39
2023-01-28T03:59:16.651Z,1.38
2023-01-28T04:00:17.181Z,1.33
2023-01-28T04:01:16.706Z,1.33
2023-01-28T04:02:17.310Z,1.32
2023-01-28T04:03:16.928Z,1.35
2023-01-28T04:04:16.455Z,1.35
2023-01-28T04:05:17.133Z,1.38
2023-01-28T04:06:17.020Z,1.35
2023-01-28T04:07:16.503Z,1.38
2023-01-28T04:08:17.003Z,1.33
2023-01-28T04:09:16.518Z,1.33
2023-01-28T04:10:17.005Z,1.33
2023-01-28T04:11:16.500Z,1.33
2023-01-28T04:12:17.022Z,1.32
2023-01-28T04:13:16.497Z,1.35
2023-01-28T04:14:16.994Z,1.36
2023-01-28T04:15:16.864Z,1.36
2023-01-28T04:16:17.046Z,1.38
2023-01-28T04:17:16.691Z,1.38
2023-01-28T04:18:17.227Z,1.39
2023-01-28T04:19:16.708Z,1.38
2023-01-28T04:20:17.192Z,1.36
2023-01-28T04:21:16.732Z,1.38
2023-01-28T04:22:17.094Z,1.33
2023-01-28T04:23:16.564Z,1.35
2023-01-28T04:24:17.111Z,1.35
2023-01-28T04:25:17.090Z,1.33
2023-01-28T04:26:17.135Z,1.32
2023-01-28T04:27:16.635Z,1.31
2023-01-28T04:28:17.181Z,1.26
2023-01-28T04:29:16.772Z,1.26
2023-01-28T04:30:17.311Z,1.25
2023-01-28T04:31:16.852Z,1.26
2023-01-28T04:32:17.358Z,1.26
2023-01-28T04:33:16.844Z,1.28
2023-01-28T04:34:16.355Z,1.31
2023-01-28T04:35:17.083Z,1.28
2023-01-28T04:36:17.101Z,1.29
2023-01-28T04:37:16.561Z,1.29
2023-01-28T04:38:17.022Z,1.26
2023-01-28T04:39:16.526Z,1.28
2023-01-28T04:40:17.070Z,1.28
2023-01-28T04:41:16.538Z,1.24
2023-01-28T04:42:17.013Z,1.26
2023-01-28T04:43:16.564Z,1.26
2023-01-28T04:44:17.072Z,1.26
2023-01-28T04:45:16.919Z,1.28
2023-01-28T04:46:16.901Z,1.25
2023-01-28T04:47:16.442Z,1.24
2023-01-28T04:48:16.924Z,1.24
2023-01-28T04:49:16.440Z,1.24
2023-01-28T04:50:16.927Z,1.25
2023-01-28T04:51:16.424Z,1.29
2023-01-28T04:52:17.114Z,1.29
2023-01-28T04:53:16.605Z,1.28
2023-01-28T04:54:17.111Z,1.25
2023-01-28T04:55:16.858Z,1.26
2023-01-28T04:56:17.089Z,1.28
2023-01-28T04:57:16.603Z,1.28
2023-01-28T04:58:17.160Z,1.29
2023-01-28T04:59:16.659Z,1.29
2023-01-28T05:00:17.187Z,1.29
2023-01-28T05:01:16.785Z,1.28
2023-01-28T05:02:17.052Z,1.28
2023-01-28T05:03:16.627Z,1.28
2023-01-28T05:04:17.134Z,1.28
2023-01-28T05:05:17.096Z,1.28
2023-01-28T05:06:17.072Z,1.31
2023-01-28T05:07:16.574Z,1.29
2023-01-28T05:08:17.068Z,1.29
2023-01-28T05:09:16.590Z,1.32
2023-01-28T05:10:17.083Z,1.31
2023-01-28T05:11:16.596Z,1.26
2023-01-28T05:12:17.264Z,1.28
2023-01-28T05:13:16.796Z,1.29
2023-01-28T05:14:17.325Z,1.33
2023-01-28T05:15:17.045Z,1.32
2023-01-28T05:16:17.004Z,1.35
2023-01-28T05:17:16.539Z,1.32
2023-01-28T05:18:17.080Z,1.35
2023-01-28T05:19:16.584Z,1.35
2023-01-28T05:20:17.116Z,1.33
2023-01-28T05:21:16.622Z,1.38
2023-01-28T05:22:17.196Z,1.35
2023-01-28T05:23:16.707Z,1.31
2023-01-28T05:24:17.252Z,1.31
2023-01-28T05:25:17.016Z,1.29
2023-01-28T05:26:16.839Z,1.33
2023-01-28T05:27:16.392Z,1.35
2023-01-28T05:28:16.905Z,1.32
2023-01-28T05:29:16.415Z,1.33
2023-01-28T05:30:17.164Z,1.35
2023-01-28T05:31:16.972Z,1.35
2023-01-28T05:32:16.829Z,1.33
2023-01-28T05:33:16.421Z,1.33
2023-01-28T05:34:16.915Z,1.32
2023-01-28T05:35:16.934Z,1.33
2023-01-28T05:36:17.228Z,1.31
2023-01-28T05:37:16.741Z,1.31
2023-01-28T05:38:17.254Z,1.33
2023-01-28T05:39:16.769Z,1.35
2023-01-28T05:40:17.501Z,1.35
2023-01-28T05:41:16.551Z,1.33
2023-01-28T05:42:16.776Z,1.35
2023-01-28T05:43:17.295Z,1.35
2023-01-28T05:44:16.797Z,1.35
2023-01-28T05:45:17.487Z,1.36
2023-01-28T05:46:17.188Z,1.32
2023-01-28T05:47:16.699Z,1.35
2023-01-28T05:48:17.202Z,1.33
2023-01-28T05:49:16.727Z,1.35
2023-01-28T05:50:17.498Z,1.35
2023-01-28T05:51:16.477Z,1.33
2023-01-28T05:52:16.381Z,1.35
2023-01-28T05:53:16.885Z,1.36
2023-01-28T05:54:16.512Z,1.36
2023-01-28T05:55:18.489Z,1.36
2023-01-28T05:56:16.311Z,1.38
2023-01-28T05:57:16.832Z,1.39
2023-01-28T05:58:16.311Z,1.39
2023-01-28T05:59:16.840Z,1.39
2023-01-28T06:00:16.861Z,1.40
2023-01-28T06:01:17.217Z,1.40
2023-01-28T06:02:16.448Z,1.40
2023-01-28T06:03:16.983Z,1.38
2023-01-28T06:04:16.484Z,1.36
2023-01-28T06:05:17.012Z,1.38
2023-01-28T06:06:16.593Z,1.38
2023-01-28T06:07:17.100Z,1.38
2023-01-28T06:08:16.576Z,1.38
2023-01-28T06:09:17.072Z,1.38
2023-01-28T06:10:16.850Z,1.38
2023-01-28T06:11:18.435Z,1.40
2023-01-28T06:12:16.955Z,1.40
2023-01-28T06:13:16.459Z,1.39
2023-01-28T06:14:16.962Z,1.40
2023-01-28T06:15:16.465Z,1.40
2023-01-28T06:16:17.034Z,1.39
2023-01-28T06:17:16.610Z,1.40
2023-01-28T06:18:17.104Z,1.39
2023-01-28T06:19:16.600Z,1.38
2023-01-28T06:20:17.440Z,1.39
2023-01-28T06:21:16.388Z,1.39
2023-01-28T06:22:17.044Z,1.39
2023-01-28T06:23:16.593Z,1.36
2023-01-28T06:24:17.280Z,1.35
2023-01-28T06:25:16.847Z,1.33
2023-01-28T06:26:16.331Z,1.28
2023-01-28T06:27:16.805Z,1.33
2023-01-28T06:28:17.355Z,1.32
2023-01-28T06:29:16.834Z,1.33
2023-01-28T06:30:16.611Z,1.35
2023-01-28T06:31:16.553Z,1.33
2023-01-28T06:32:17.230Z,1.28
2023-01-28T06:33:16.817Z,1.31
2023-01-28T06:34:16.379Z,1.26
2023-01-28T06:35:16.948Z,1.32
2023-01-28T06:36:16.474Z,1.31
2023-01-28T06:37:16.990Z,1.32
2023-01-28T06:38:16.490Z,1.33
2023-01-28T06:39:16.967Z,1.33
2023-01-28T06:40:16.754Z,1.33
2023-01-28T06:41:16.825Z,1.33
2023-01-28T06:42:16.823Z,1.32
2023-01-28T06:43:16.321Z,1.33
2023-01-28T06:44:16.800Z,1.29
2023-01-28T06:45:17.300Z,1.31
2023-01-28T06:46:16.869Z,1.29
2023-01-28T06:47:16.434Z,1.29
2023-01-28T06:48:17.022Z,1.29
2023-01-28T06:49:16.545Z,1.31
2023-01-28T06:50:17.401Z,1.32
2023-01-28T06:51:16.377Z,1.29
2023-01-28T06:52:16.979Z,1.29
2023-01-28T06:53:16.476Z,1.31
2023-01-28T06:54:16.969Z,1.29
2023-01-28T06:55:16.447Z,1.28
2023-01-28T06:56:16.949Z,1.25
2023-01-28T06:57:16.442Z,1.28
2023-01-28T06:58:16.938Z,1.26
2023-01-28T06:59:16.462Z,1.29
2023-01-28T07:00:17.267Z,1.29
2023-01-28T07:01:16.492Z,1.26
2023-01-28T07:02:16.770Z,1.26
2023-01-28T07:03:17.379Z,1.25
2023-01-28T07:04:16.955Z,1.26
2023-01-28T07:05:16.473Z,1.29
2023-01-28T07:06:16.945Z,1.29
2023-01-28T07:07:16.455Z,1.29
2023-01-28T07:08:16.951Z,1.31
2023-01-28T07:09:16.451Z,1.29
2023-01-28T07:10:17.206Z,1.29
2023-01-28T07:11:16.399Z,1.28
2023-01-28T07:12:17.117Z,1.29
2023-01-28T07:13:16.617Z,1.28
2023-01-28T07:14:17.156Z,1.28
2023-01-28T07:15:16.640Z,1.25
2023-01-28T07:16:17.165Z,1.22
2023-01-28T07:17:16.664Z,1.22
2023-01-28T07:18:17.259Z,1.22
2023-01-28T07:19:16.767Z,1.25
2023-01-28T07:20:17.549Z,1.26
2023-01-28T07:21:16.606Z,1.26
2023-01-28T07:22:16.433Z,1.25
2023-01-28T07:23:16.913Z,1.25
2023-01-28T07:24:16.407Z,1.24
2023-01-28T07:25:16.986Z,1.25
2023-01-28T07:26:16.468Z,1.28
2023-01-28T07:27:16.996Z,1.26
2023-01-28T07:28:16.470Z,1.26
2023-01-28T07:29:16.963Z,1.28
2023-01-28T07:30:16.661Z,1.29
2023-01-28T07:31:16.765Z,1.28
2023-01-28T07:32:16.358Z,1.29
2023-01-28T07:33:16.845Z,1.31
2023-01-28T07:34:16.331Z,1.31
2023-01-28T07:35:16.840Z,1.33
2023-01-28T07:36:16.351Z,1.32
2023-01-28T07:37:16.880Z,1.33
2023-01-28T07:38:16.370Z,1.36
2023-01-28T07:39:16.874Z,1.35
2023-01-28T07:40:16.610Z,1.35
2023-01-28T07:41:16.435Z,1.36
2023-01-28T07:42:16.373Z,1.36
2023-01-28T07:43:16.847Z,1.35
2023-01-28T07:44:16.383Z,1.36
2023-01-28T07:45:16.879Z,1.36
2023-01-28T07:46:16.360Z,1.38
2023-01-28T07:47:16.905Z,1.38
2023-01-28T07:48:16.496Z,1.38
2023-01-28T07:49:16.993Z,1.36
2023-01-28T07:50:16.780Z,1.38
2023-01-28T07:51:16.930Z,1.39
2023-01-28T07:52:16.505Z,1.39
2023-01-28T07:53:17.000Z,1.39
2023-01-28T07:54:16.497Z,1.35
2023-01-28T07:55:16.985Z,1.40
2023-01-28T07:56:16.531Z,1.43
2023-01-28T07:57:17.035Z,1.45
2023-01-28T07:58:16.531Z,1.43
2023-01-28T07:59:17.011Z,1.40
2023-01-28T08:00:16.820Z,1.38
2023-01-28T08:01:16.898Z,1.40
2023-01-28T08:02:16.392Z,1.43
2023-01-28T08:03:16.910Z,1.45
2023-01-28T08:04:16.549Z,1.49
2023-01-28T08:05:17.375Z,1.49
2023-01-28T08:06:17.144Z,1.49
2023-01-28T08:07:16.703Z,1.53
2023-01-28T08:08:17.229Z,1.53
2023-01-28T08:09:16.749Z,1.56
2023-01-28T08:10:17.532Z,1.57
2023-01-28T08:11:16.487Z,1.54
2023-01-28T08:12:16.885Z,1.56
2023-01-28T08:13:16.403Z,1.59
2023-01-28T08:14:16.943Z,1.59
2023-01-28T08:15:16.496Z,1.59
2023-01-28T08:16:17.011Z,1.59
2023-01-28T08:17:16.632Z,1.56
2023-01-28T08:18:17.170Z,1.57
2023-01-28T08:19:16.722Z,1.61
2023-01-28T08:20:17.447Z,1.64
2023-01-28T08:21:16.409Z,1.70
2023-01-28T08:22:16.343Z,1.64
2023-01-28T08:23:16.856Z,1.50
2023-01-28T08:24:16.354Z,1.54
2023-01-28T08:25:17.037Z,1.60
2023-01-28T08:26:16.541Z,1.53
2023-01-28T08:27:17.029Z,1.49
2023-01-28T08:28:16.538Z,1.50
2023-01-28T08:29:17.032Z,1.57
2023-01-28T08:30:16.910Z,1.63
2023-01-28T08:31:17.205Z,1.70
2023-01-28T08:32:16.623Z,1.71
2023-01-28T08:33:17.115Z,1.66
2023-01-28T08:34:16.619Z,1.67
2023-01-28T08:35:17.116Z,1.66
2023-01-28T08:36:16.627Z,1.61
2023-01-28T08:37:17.153Z,1.60
2023-01-28T08:38:16.657Z,1.67
2023-01-28T08:39:17.155Z,1.61
2023-01-28T08:40:16.965Z,1.63
2023-01-28T08:41:16.346Z,1.64
2023-01-28T08:42:16.741Z,1.63
2023-01-28T08:43:17.291Z,1.66
2023-01-28T08:44:16.808Z,1.73
2023-01-28T08:45:16.301Z,1.73
2023-01-28T08:46:16.916Z,1.81
2023-01-28T08:47:16.604Z,1.78
2023-01-28T08:48:17.137Z,1.73
2023-01-28T08:49:16.632Z,1.75
2023-01-28T08:50:17.416Z,1.73
2023-01-28T08:51:17.041Z,1.80
2023-01-28T08:52:17.236Z,1.80
2023-01-28T08:53:16.769Z,1.77
2023-01-28T08:54:17.255Z,1.78
2023-01-28T08:55:16.748Z,1.70
2023-01-28T08:56:17.251Z,1.70
2023-01-28T08:57:16.739Z,1.75
2023-01-28T08:58:17.274Z,1.82
2023-01-28T08:59:16.777Z,1.77
2023-01-28T09:00:17.455Z,1.78
2023-01-28T09:01:16.341Z,1.81
2023-01-28T09:02:29.352Z,1.82
2023-01-28T09:03:16.329Z,1.81
2023-01-28T09:04:16.806Z,1.77
2023-01-28T09:05:17.315Z,1.81
2023-01-28T09:06:16.842Z,1.88
2023-01-28T09:07:16.321Z,1.91
2023-01-28T09:08:16.830Z,1.80
2023-01-28T09:09:16.319Z,1.73
2023-01-28T09:10:17.324Z,1.77
2023-01-28T09:11:16.581Z,1.81
2023-01-28T09:12:16.855Z,1.74
2023-01-28T09:13:16.404Z,1.77
2023-01-28T09:14:16.992Z,1.81
2023-01-28T09:15:16.479Z,1.80
2023-01-28T09:16:16.968Z,1.71
2023-01-28T09:17:16.479Z,1.78
2023-01-28T09:18:16.995Z,1.85
2023-01-28T09:19:16.473Z,1.84
2023-01-28T09:20:17.310Z,1.85
2023-01-28T09:21:16.483Z,1.89
2023-01-28T09:22:16.873Z,1.92
2023-01-28T09:23:16.401Z,1.99
2023-01-28T09:24:16.922Z,2.05
2023-01-28T09:25:16.493Z,2.06
2023-01-28T09:26:17.026Z,2.09
2023-01-28T09:27:16.554Z,2.08
2023-01-28T09:28:17.047Z,2.15
2023-01-28T09:29:16.523Z,2.16
2023-01-28T09:30:17.432Z,2.17
2023-01-28T09:31:16.772Z,2.16
2023-01-28T09:32:16.371Z,2.16
2023-01-28T09:33:16.879Z,2.10
2023-01-28T09:34:16.353Z,2.09
2023-01-28T09:35:16.869Z,2.10
2023-01-28T09:36:16.357Z,2.22
2023-01-28T09:37:16.846Z,2.30
2023-01-28T09:38:16.351Z,2.28
2023-01-28T09:39:16.884Z,2.23
2023-01-28T09:40:16.632Z,2.26
2023-01-28T09:41:16.528Z,2.28
2023-01-28T09:42:16.726Z,2.25
2023-01-28T09:43:17.236Z,2.33
2023-01-28T09:44:16.753Z,2.29
2023-01-28T09:45:17.244Z,2.22
2023-01-28T09:46:16.774Z,2.10
2023-01-28T09:47:16.410Z,2.16
2023-01-28T09:48:16.881Z,2.16
2023-01-28T09:49:16.374Z,2.15
2023-01-28T09:50:17.135Z,2.22
2023-01-28T09:51:16.323Z,2.30
2023-01-28T09:52:16.765Z,2.26
2023-01-28T09:53:17.262Z,2.32
2023-01-28T09:54:16.765Z,2.29
2023-01-28T09:55:17.261Z,2.37
2023-01-28T09:56:16.741Z,2.40
2023-01-28T09:57:17.250Z,2.40
2023-01-28T09:58:16.750Z,2.42
2023-01-28T09:59:17.294Z,2.46
2023-01-28T10:00:17.286Z,2.33
2023-01-28T10:01:16.438Z,2.40
2023-01-28T10:02:16.900Z,2.49
2023-01-28T10:03:16.389Z,2.57
2023-01-28T10:04:16.884Z,2.53
2023-01-28T10:05:16.411Z,2.50
2023-01-28T10:06:17.003Z,2.44
2023-01-28T10:07:16.491Z,2.46
2023-01-28T10:08:16.991Z,2.53
2023-01-28T10:09:16.615Z,2.46
2023-01-28T10:10:17.387Z,2.47
2023-01-28T10:11:16.604Z,2.54
2023-01-28T10:12:16.815Z,2.44
2023-01-28T10:13:17.301Z,2.33
2023-01-28T10:14:16.786Z,2.42
2023-01-28T10:15:17.286Z,2.42
2023-01-28T10:16:16.759Z,2.51
2023-01-28T10:17:16.345Z,2.60
2023-01-28T10:18:18.460Z,2.65
2023-01-28T10:19:17.199Z,2.67
2023-01-28T10:20:17.202Z,2.64
2023-01-28T10:21:17.103Z,2.54
2023-01-28T10:22:16.716Z,2.39
2023-01-28T10:23:17.265Z,2.30
2023-01-28T10:24:16.949Z,2.43
2023-01-28T10:25:16.649Z,2.43
2023-01-28T10:26:17.120Z,2.43
2023-01-28T10:27:16.607Z,2.57
2023-01-28T10:28:17.109Z,2.46
2023-01-28T10:29:16.599Z,2.50
2023-01-28T10:30:17.427Z,2.64
2023-01-28T10:31:16.444Z,2.72
2023-01-28T10:32:16.380Z,2.78
2023-01-28T10:33:16.876Z,2.89
2023-01-28T10:34:18.408Z,2.92
2023-01-28T10:35:16.631Z,2.95
2023-01-28T10:36:17.121Z,2.95
2023-01-28T10:37:16.670Z,2.85
2023-01-28T10:38:17.298Z,2.78
2023-01-28T10:39:16.811Z,2.67
2023-01-28T10:40:16.677Z,2.81
2023-01-28T10:41:16.859Z,2.94
2023-01-28T10:42:16.295Z,2.92
2023-01-28T10:43:16.799Z,3.06
2023-01-28T10:44:17.303Z,3.13
2023-01-28T10:45:16.818Z,3.20
2023-01-28T10:46:16.387Z,3.23
2023-01-28T10:47:16.980Z,3.12
2023-01-28T10:48:16.499Z,3.00
2023-01-28T10:49:16.993Z,3.10
2023-01-28T10:50:16.742Z,3.19
2023-01-28T10:51:16.907Z,3.22
2023-01-28T10:52:16.356Z,3.16
2023-01-28T10:53:16.856Z,3.13
2023-01-28T10:54:16.369Z,3.12
2023-01-28T10:55:16.862Z,3.16
2023-01-28T10:56:16.363Z,3.19
2023-01-28T10:57:16.893Z,3.16
2023-01-28T10:58:16.391Z,3.17
2023-01-28T10:59:16.881Z,3.16
2023-01-28T11:00:16.718Z,3.12
2023-01-28T11:01:16.613Z,3.09
2023-01-28T11:02:16.493Z,3.05
2023-01-28T11:03:17.094Z,3.13
2023-01-28T11:04:16.582Z,3.10
2023-01-28T11:05:17.097Z,3.15
2023-01-28T11:06:16.581Z,3.10
2023-01-28T11:07:17.075Z,3.19
2023-01-28T11:08:16.557Z,3.09
2023-01-28T11:09:17.041Z,2.98
2023-01-28T11:10:16.801Z,2.96
2023-01-28T11:11:16.755Z,2.96
2023-01-28T11:12:16.807Z,3.02
2023-01-28T11:13:16.332Z,3.03
2023-01-28T11:14:16.868Z,2.96
2023-01-28T11:15:16.587Z,2.98
2023-01-28T11:16:16.663Z,2.96
2023-01-28T11:17:17.200Z,3.03
2023-01-28T11:18:16.931Z,3.05
2023-01-28T11:19:16.433Z,3.06
2023-01-28T11:20:17.283Z,3.05
2023-01-28T11:21:17.152Z,3.05
2023-01-28T11:22:17.043Z,2.98
2023-01-28T11:23:16.524Z,2.88
2023-01-28T11:24:17.075Z,2.96
2023-01-28T11:25:16.778Z,2.99
2023-01-28T11:26:17.302Z,2.98
2023-01-28T11:27:16.822Z,2.82
2023-01-28T11:28:16.346Z,2.82
2023-01-28T11:29:16.890Z,2.87
2023-01-28T11:30:16.677Z,2.87
2023-01-28T11:31:16.666Z,2.91
2023-01-28T11:32:16.535Z,2.91
2023-01-28T11:33:17.016Z,2.94
2023-01-28T11:34:16.529Z,2.84
2023-01-28T11:35:17.035Z,2.98
2023-01-28T11:36:16.505Z,2.99
2023-01-28T11:37:16.983Z,2.77
2023-01-28T11:38:16.513Z,2.91
2023-01-28T11:39:17.010Z,2.95
2023-01-28T11:40:18.258Z,2.99
2023-01-28T11:41:17.306Z,2.99
2023-01-28T11:42:16.696Z,2.95
2023-01-28T11:43:17.252Z,2.95
2023-01-28T11:44:16.774Z,2.85
2023-01-28T11:45:17.263Z,2.91
2023-01-28T11:46:16.878Z,2.98
2023-01-28T11:47:16.531Z,2.77
2023-01-28T11:48:17.297Z,2.79
2023-01-28T11:49:16.798Z,2.88
2023-01-28T11:50:17.773Z,2.94
2023-01-28T11:51:17.012Z,2.96
2023-01-28T11:52:16.513Z,2.87
2023-01-28T11:53:17.164Z,2.88
2023-01-28T11:54:16.710Z,2.89
2023-01-28T11:55:17.231Z,2.70
2023-01-28T11:56:16.836Z,2.51
2023-01-28T11:57:16.349Z,2.50
2023-01-28T11:58:16.844Z,2.56
2023-01-28T11:59:16.336Z,2.61
2023-01-28T12:00:17.108Z,2.33
2023-01-28T12:01:17.286Z,2.09
2023-01-28T12:02:16.877Z,2.26
2023-01-28T12:03:16.466Z,2.17
2023-01-28T12:04:16.979Z,2.15
2023-01-28T12:05:16.490Z,2.30
2023-01-28T12:06:17.010Z,2.29
2023-01-28T12:07:16.524Z,2.34
2023-01-28T12:08:17.017Z,2.40
2023-01-28T12:09:16.551Z,2.42
2023-01-28T12:10:17.338Z,2.34
2023-01-28T12:11:16.360Z,2.36
2023-01-28T12:12:17.083Z,2.40
2023-01-28T12:13:16.595Z,2.40
2023-01-28T12:14:17.105Z,2.40
2023-01-28T12:15:16.597Z,2.32
2023-01-28T12:16:17.171Z,2.25
2023-01-28T12:17:16.830Z,2.22
2023-01-28T12:18:16.339Z,2.23
2023-01-28T12:19:16.885Z,2.28
2023-01-28T12:20:16.628Z,2.29
2023-01-28T12:21:16.915Z,2.16
2023-01-28T12:22:16.383Z,2.17
2023-01-28T12:23:16.872Z,2.15
2023-01-28T12:24:16.412Z,2.01
2023-01-28T12:25:17.049Z,1.94
2023-01-28T12:26:16.559Z,1.99
2023-01-28T12:27:17.037Z,2.01
2023-01-28T12:28:16.560Z,2.04
2023-01-28T12:29:17.040Z,2.02
2023-01-28T12:30:16.828Z,1.89
2023-01-28T12:31:17.037Z,1.87
2023-01-28T12:32:17.009Z,1.95
2023-01-28T12:33:17.573Z,2.01
2023-01-28T12:34:17.123Z,1.91
2023-01-28T12:35:16.626Z,1.99
2023-01-28T12:36:17.126Z,2.02
2023-01-28T12:37:16.629Z,2.05
2023-01-28T12:38:17.132Z,2.06
2023-01-28T12:39:16.605Z,2.01
2023-01-28T12:40:17.417Z,1.99
2023-01-28T12:41:16.584Z,1.78
2023-01-28T12:42:16.362Z,1.78
2023-01-28T12:43:16.879Z,1.74
2023-01-28T12:44:16.357Z,1.73
2023-01-28T12:45:16.879Z,1.64
2023-01-28T12:46:16.399Z,1.57
2023-01-28T12:47:17.192Z,1.49
2023-01-28T12:48:16.705Z,1.39
2023-01-28T12:49:17.226Z,1.43
2023-01-28T12:50:17.090Z,1.46
2023-01-28T12:51:17.215Z,1.46
2023-01-28T12:52:16.944Z,1.46
2023-01-28T12:53:16.467Z,1.45
2023-01-28T12:54:16.966Z,1.42
2023-01-28T12:55:16.467Z,1.45
2023-01-28T12:56:16.978Z,1.43
2023-01-28T12:57:16.470Z,1.43
2023-01-28T12:58:16.988Z,1.45
2023-01-28T12:59:16.468Z,1.53
2023-01-28T13:00:17.176Z,1.57
2023-01-28T13:01:17.017Z,1.57
2023-01-28T13:02:16.952Z,1.57
2023-01-28T13:03:16.595Z,1.57
2023-01-28T13:04:17.156Z,1.56
2023-01-28T13:05:16.655Z,1.56
2023-01-28T13:06:17.170Z,1.61
2023-01-28T13:07:16.632Z,1.73
2023-01-28T13:08:17.114Z,1.82
2023-01-28T13:09:16.587Z,1.89
2023-01-28T13:10:17.302Z,1.95
2023-01-28T13:11:17.043Z,1.91
2023-01-28T13:12:17.187Z,1.89
2023-01-28T13:13:16.680Z,1.85
2023-01-28T13:14:17.269Z,1.87
2023-01-28T13:15:17.019Z,1.88
2023-01-28T13:16:19.338Z,1.84
2023-01-28T13:17:17.110Z,1.69
2023-01-28T13:18:16.602Z,1.60